Beaumaris, United Kingdom
Current Conditions -  °F | °C
As of 9:50 AM on Sunday 23 Nov 2014 (Local Time) from EGOV Reporting Station
Few Clouds Few Clouds  
Wind Chill: 40°   Ceiling: Unl
Heat Index: 45°   Visibility: 6mi
Dew Point: 37°   Wind: 8mph
Humidity: 76%   Direction: 310°NW
Pressure: 30.09"   Gusts: NA
Location:  53.26°N, 4.09°W
Report Text: EGOV 230950Z AUTO 31007KT 9999 FEW200/// 07/03 Q1019
Loading
Personal Weather Stations






























Interactive Weather Map New forecast layout! Learn more

10-Day Weather Forecast

Advertisements
Track Severe Weather on mobile